Time;durP1;ratioP1;P1;durP2;ratioP2;P2;SDS_P1;SDS_P2;PMS_P1;PMS_P2;Temp;Humidity;BMP_temperature;BMP_pressure;BME280_temperature;BME280_humidity;BME280_pressure;Samples;Min_cycle;Max_cycle;Signal;HPM_P1;HPM_P2
2023/05/29 00:00:57;;;;;;;7.93;3.80;;;15.50;85.00;;;;;;4926336;29;20152;-72
2023/05/29 00:03:24;;;;;;;7.47;3.55;;;15.50;85.40;;;;;;4922572;29;20054;-72
2023/05/29 00:05:50;;;;;;;10.32;3.47;;;15.40;85.60;;;;;;4926860;29;20465;-72
2023/05/29 00:08:19;;;;;;;8.32;3.95;;;15.40;86.70;;;;;;4921474;29;20039;-72
2023/05/29 00:10:44;;;;;;;8.93;3.95;;;15.30;86.30;;;;;;4925035;29;20047;-72
2023/05/29 00:13:10;;;;;;;8.90;4.88;;;15.30;86.50;;;;;;4905035;29;20803;-72
2023/05/29 00:15:36;;;;;;;14.95;7.68;;;15.30;86.50;;;;;;4943861;29;20124;-73
2023/05/29 00:18:02;;;;;;;11.35;5.55;;;15.30;86.50;;;;;;4893532;29;20078;-72
2023/05/29 00:20:28;;;;;;;13.00;6.28;;;15.40;86.80;;;;;;4942108;29;20467;-72
2023/05/29 00:22:53;;;;;;;14.55;7.82;;;15.30;86.90;;;;;;4937190;29;20843;-72
2023/05/29 00:25:19;;;;;;;16.67;9.48;;;15.30;87.20;;;;;;4941482;29;20064;-72
2023/05/29 00:27:45;;;;;;;19.25;11.38;;;15.20;87.70;;;;;;4935193;29;20048;-73
2023/05/29 00:30:12;;;;;;;12.65;6.30;;;15.20;87.90;;;;;;4937498;29;20098;-72
2023/05/29 00:32:37;;;;;;;15.15;6.32;;;15.20;88.00;;;;;;4920935;29;20150;-72
2023/05/29 00:35:03;;;;;;;11.65;6.32;;;15.20;88.70;;;;;;4941261;29;20130;-72
2023/05/29 00:37:29;;;;;;;10.32;5.85;;;15.20;89.00;;;;;;4940938;29;20144;-72
2023/05/29 00:39:56;;;;;;;11.77;5.70;;;15.10;89.20;;;;;;4937791;29;20455;-72
2023/05/29 00:42:22;;;;;;;9.18;5.28;;;15.10;89.70;;;;;;4929667;29;20052;-72
2023/05/29 00:44:48;;;;;;;8.30;4.85;;;15.00;90.00;;;;;;4942025;29;20055;-72
2023/05/29 00:47:13;;;;;;;10.60;5.22;;;15.00;90.10;;;;;;4935801;29;20079;-72
2023/05/29 00:49:39;;;;;;;12.00;5.35;;;15.00;90.30;;;;;;4914721;29;20489;-72
2023/05/29 00:52:06;;;;;;;9.98;4.80;;;15.00;90.40;;;;;;4927715;29;20106;-72
2023/05/29 00:54:33;;;;;;;13.68;5.05;;;15.00;90.60;;;;;;4892319;29;20052;-72
2023/05/29 00:56:58;;;;;;;10.18;4.72;;;15.00;90.60;;;;;;4936685;29;20082;-72
2023/05/29 00:59:29;;;;;;;9.75;4.25;;;14.90;90.70;;;;;;4944484;29;20079;-72
2023/05/29 01:01:55;;;;;;;11.65;5.13;;;14.90;90.80;;;;;;4936272;29;20043;-73
2023/05/29 01:04:23;;;;;;;10.18;5.63;;;14.90;91.20;;;;;;4926462;29;20047;-72
2023/05/29 01:06:49;;;;;;;10.75;5.25;;;14.80;91.30;;;;;;4896818;29;20071;-71
2023/05/29 01:09:16;;;;;;;11.77;5.60;;;14.80;91.40;;;;;;4901176;29;20122;-72
2023/05/29 01:12:04;;;;;;;8.55;5.45;;;14.80;91.50;;;;;;4925869;29;20183;-72
2023/05/29 01:14:48;;;;;;;10.53;4.97;;;14.80;91.70;;;;;;4906211;29;20130;-72
2023/05/29 01:17:43;;;;;;;10.27;5.50;;;14.80;91.70;;;;;;4935525;29;20047;-72
2023/05/29 01:20:30;;;;;;;9.93;5.13;;;14.80;91.90;;;;;;4914604;29;20058;-72
2023/05/29 01:22:59;;;;;;;13.20;5.43;;;14.70;92.10;;;;;;4921295;29;20082;-72
2023/05/29 01:25:45;;;;;;;;;;;14.70;92.10;;;;;;4941362;29;20059;-72
2023/05/29 01:28:11;;;;;;;9.00;4.55;;;14.70;92.20;;;;;;4935878;29;19986;-72
2023/05/29 01:30:38;;;;;;;9.23;4.30;;;14.70;92.30;;;;;;4925497;29;20067;-72
2023/05/29 01:33:04;;;;;;;10.27;4.05;;;14.70;92.30;;;;;;4920721;29;20043;-72
2023/05/29 01:35:29;;;;;;;8.20;4.63;;;14.70;92.50;;;;;;4912637;29;20055;-72
2023/05/29 01:37:55;;;;;;;9.52;4.13;;;14.60;92.80;;;;;;4933604;29;20051;-72
2023/05/29 01:40:22;;;;;;;9.95;4.95;;;14.60;92.80;;;;;;4909927;29;20051;-72
2023/05/29 01:42:48;;;;;;;9.50;4.45;;;14.50;92.80;;;;;;4922632;29;20122;-72
2023/05/29 01:45:16;;;;;;;9.40;4.38;;;14.40;93.00;;;;;;4934748;29;20484;-72
2023/05/29 01:47:42;;;;;;;11.05;4.40;;;14.30;93.20;;;;;;4935228;29;20043;-72
2023/05/29 01:50:09;;;;;;;8.27;4.20;;;14.30;93.40;;;;;;4902720;29;20381;-72
2023/05/29 01:52:35;;;;;;;5.93;3.85;;;14.30;93.60;;;;;;4922967;29;20048;-72
2023/05/29 01:55:01;;;;;;;8.90;4.50;;;14.30;93.60;;;;;;4924437;29;20101;-72
2023/05/29 01:57:26;;;;;;;10.05;5.03;;;14.30;93.80;;;;;;4929533;29;20526;-72
2023/05/29 01:59:52;;;;;;;8.02;4.25;;;14.20;93.80;;;;;;4901162;29;20381;-72
2023/05/29 02:02:18;;;;;;;10.48;4.10;;;14.20;94.20;;;;;;4923710;29;20051;-71
2023/05/29 02:04:44;;;;;;;9.82;4.25;;;14.10;94.10;;;;;;4923720;29;20134;-72
2023/05/29 02:07:12;;;;;;;7.00;3.88;;;14.00;94.30;;;;;;4930290;29;20098;-72
2023/05/29 02:09:37;;;;;;;9.67;4.50;;;14.00;94.40;;;;;;4928741;29;20350;-72
2023/05/29 02:12:03;;;;;;;10.60;4.57;;;14.00;94.50;;;;;;4939332;29;20086;-72
2023/05/29 02:14:31;;;;;;;6.72;3.72;;;13.90;94.60;;;;;;4939368;29;20047;-71
2023/05/29 02:16:57;;;;;;;10.35;4.18;;;13.90;94.80;;;;;;4902089;29;20043;-72
2023/05/29 02:19:25;;;;;;;6.80;3.70;;;13.90;95.00;;;;;;4907856;29;20563;-72
2023/05/29 02:21:51;;;;;;;10.02;3.95;;;13.80;95.10;;;;;;4934797;29;20047;-72
2023/05/29 02:24:16;;;;;;;6.10;3.72;;;13.80;95.20;;;;;;4922310;29;20483;-71
2023/05/29 02:26:42;;;;;;;9.30;3.90;;;13.90;95.30;;;;;;4934439;29;20062;-72
2023/05/29 02:29:08;;;;;;;7.15;3.45;;;13.80;95.20;;;;;;4935038;29;20075;-72
2023/05/29 02:31:34;;;;;;;6.75;3.90;;;13.80;95.20;;;;;;4918945;29;20098;-71
2023/05/29 02:33:59;;;;;;;10.73;3.50;;;13.80;95.40;;;;;;4919124;29;20047;-72
2023/05/29 02:36:25;;;;;;;9.35;3.83;;;13.80;95.40;;;;;;4919224;29;20130;-72
2023/05/29 02:38:51;;;;;;;8.73;3.45;;;13.70;95.50;;;;;;4919408;29;20040;-72
2023/05/29 02:41:16;;;;;;;8.00;3.90;;;13.70;95.60;;;;;;4934051;29;20056;-72
2023/05/29 02:43:42;;;;;;;8.95;3.90;;;13.70;95.80;;;;;;4920491;29;20047;-72
2023/05/29 02:46:08;;;;;;;5.90;2.92;;;13.60;95.80;;;;;;4902236;29;20126;-72
2023/05/29 02:48:34;;;;;;;5.85;3.63;;;13.60;95.80;;;;;;4921061;29;20437;-71
2023/05/29 02:51:06;;;;;;;7.10;3.40;;;13.50;96.10;;;;;;4933789;29;20485;-72
2023/05/29 02:53:39;;;;;;;5.68;3.33;;;13.50;96.00;;;;;;4918921;29;20054;-72
2023/05/29 02:56:07;;;;;;;7.45;3.53;;;13.40;96.10;;;;;;4934977;29;20127;-71
2023/05/29 02:58:33;;;;;;;7.93;3.55;;;13.40;96.20;;;;;;4934608;29;20052;-72
2023/05/29 03:01:00;;;;;;;5.50;3.67;;;13.40;96.30;;;;;;4918250;29;20116;-72
2023/05/29 03:03:25;;;;;;;6.97;3.53;;;13.40;96.50;;;;;;4919854;29;20134;-72
2023/05/29 03:05:51;;;;;;;7.32;3.50;;;13.30;96.50;;;;;;4927890;29;20158;-72
2023/05/29 03:08:17;;;;;;;7.78;3.33;;;13.30;96.40;;;;;;4938493;29;20052;-72
2023/05/29 03:10:44;;;;;;;8.38;3.55;;;13.30;96.60;;;;;;4938936;29;20397;-71
2023/05/29 03:13:10;;;;;;;7.68;3.72;;;13.20;96.60;;;;;;4920560;29;20053;-72
2023/05/29 03:15:36;;;;;;;6.63;3.60;;;13.10;96.70;;;;;;4921344;29;20464;-72
2023/05/29 03:18:03;;;;;;;5.85;3.90;;;13.20;96.90;;;;;;4934123;29;20106;-72
2023/05/29 03:20:29;;;;;;;8.15;3.72;;;13.20;96.90;;;;;;4936554;29;20059;-72
2023/05/29 03:22:56;;;;;;;7.40;3.25;;;13.10;97.10;;;;;;4935098;29;20153;-72
2023/05/29 03:25:22;;;;;;;8.02;3.53;;;13.10;97.10;;;;;;4896643;29;20043;-72
2023/05/29 03:27:48;;;;;;;6.22;3.13;;;13.10;97.20;;;;;;4923624;29;20785;-72
2023/05/29 03:30:14;;;;;;;5.80;3.45;;;13.10;97.30;;;;;;4917442;29;20338;-72
2023/05/29 03:32:40;;;;;;;8.68;3.65;;;13.10;97.40;;;;;;4940370;29;20154;-72
2023/05/29 03:35:06;;;;;;;5.43;3.40;;;13.10;97.60;;;;;;4942181;29;20046;-72
2023/05/29 03:37:32;;;;;;;6.90;3.30;;;13.10;97.60;;;;;;4921466;29;20090;-72
2023/05/29 03:39:57;;;;;;;5.28;3.28;;;13.10;97.60;;;;;;4922139;29;20075;-72
2023/05/29 03:42:23;;;;;;;5.90;3.03;;;13.10;97.90;;;;;;4921817;29;20397;-72
2023/05/29 03:44:49;;;;;;;7.70;3.05;;;13.10;97.80;;;;;;4941984;29;20134;-72
2023/05/29 03:47:15;;;;;;;8.60;3.13;;;13.10;97.80;;;;;;4920282;29;20051;-72
2023/05/29 03:49:40;;;;;;;5.38;3.33;;;13.10;97.90;;;;;;4922290;29;20043;-72
2023/05/29 03:52:06;;;;;;;4.38;2.92;;;13.10;98.10;;;;;;4919490;29;20129;-72
2023/05/29 03:54:33;;;;;;;6.60;3.28;;;13.10;98.10;;;;;;4937179;29;20040;-72
2023/05/29 03:57:01;;;;;;;8.10;3.33;;;13.00;98.10;;;;;;4903242;29;20048;-72
2023/05/29 03:59:27;;;;;;;;;;;13.00;98.20;;;;;;4939218;29;20138;-72
2023/05/29 04:01:53;;;;;;;6.97;3.30;;;13.10;98.30;;;;;;4944055;29;20017;-72
2023/05/29 04:04:18;;;;;;;5.65;3.17;;;13.10;98.50;;;;;;4936709;29;20086;-72
2023/05/29 04:06:44;;;;;;;6.10;2.97;;;13.00;98.40;;;;;;4939856;29;20078;-72
2023/05/29 04:09:10;;;;;;;6.95;3.55;;;13.00;98.40;;;;;;4921937;29;20456;-72
2023/05/29 04:11:36;;;;;;;5.53;3.08;;;13.00;98.40;;;;;;4922306;29;20047;-72
2023/05/29 04:14:02;;;;;;;7.57;3.50;;;13.00;98.50;;;;;;4920550;29;20051;-71
2023/05/29 04:16:28;;;;;;;6.80;3.45;;;13.00;98.50;;;;;;4939471;29;20044;-71
2023/05/29 04:18:54;;;;;;;6.50;3.25;;;13.00;98.70;;;;;;4920521;29;20074;-72
2023/05/29 04:21:20;;;;;;;7.55;2.95;;;13.00;98.60;;;;;;4949064;29;20047;-72
2023/05/29 04:23:46;;;;;;;13.50;3.53;;;13.00;98.50;;;;;;4921754;29;20039;-72
2023/05/29 04:26:12;;;;;;;6.82;3.03;;;13.00;98.70;;;;;;4911828;29;20043;-72
2023/05/29 04:28:39;;;;;;;6.75;3.20;;;12.90;98.80;;;;;;4933005;29;20055;-72
2023/05/29 04:31:05;;;;;;;5.72;3.00;;;13.00;98.90;;;;;;4909219;29;20355;-72
2023/05/29 04:33:32;;;;;;;5.80;3.00;;;13.00;98.90;;;;;;4901751;29;20068;-72
2023/05/29 04:36:00;;;;;;;7.75;3.20;;;13.00;99.00;;;;;;4939181;29;20054;-72
2023/05/29 04:38:27;;;;;;;5.35;3.22;;;13.00;99.10;;;;;;4920842;29;20055;-72
2023/05/29 04:40:57;;;;;;;5.55;2.90;;;13.00;99.00;;;;;;4921200;29;20061;-72
2023/05/29 04:43:26;;;;;;;6.95;3.45;;;13.00;99.00;;;;;;4919627;29;20054;-72
2023/05/29 04:45:52;;;;;;;9.02;3.33;;;13.00;99.00;;;;;;4902470;29;20047;-72
2023/05/29 04:48:18;;;;;;;7.50;3.08;;;13.10;99.00;;;;;;4904299;29;20388;-72
2023/05/29 04:50:44;;;;;;;6.95;3.28;;;13.10;99.10;;;;;;4921552;29;20048;-72
2023/05/29 04:53:10;;;;;;;6.05;2.97;;;13.10;99.30;;;;;;4904936;29;20098;-72
2023/05/29 04:55:36;;;;;;;8.07;3.35;;;13.10;99.30;;;;;;4936423;29;20126;-72
2023/05/29 04:58:02;;;;;;;9.00;3.10;;;13.10;99.40;;;;;;4937488;29;20489;-72
2023/05/29 05:00:28;;;;;;;7.32;3.20;;;13.10;99.30;;;;;;4919176;29;20079;-72
2023/05/29 05:02:53;;;;;;;10.82;3.47;;;13.20;99.40;;;;;;4920172;29;20067;-72
2023/05/29 05:05:20;;;;;;;8.68;3.05;;;13.20;99.50;;;;;;4936350;29;20048;-72
2023/05/29 05:07:45;;;;;;;8.52;3.13;;;13.20;99.60;;;;;;4920628;29;20353;-72
2023/05/29 05:10:11;;;;;;;8.55;3.17;;;13.30;99.50;;;;;;4940492;29;20099;-72
2023/05/29 05:12:37;;;;;;;10.75;3.17;;;13.30;99.50;;;;;;4920079;29;20107;-73
2023/05/29 05:15:04;;;;;;;8.32;3.40;;;13.40;99.70;;;;;;4927270;29;20048;-72
2023/05/29 05:17:29;;;;;;;9.90;3.67;;;13.40;99.90;;;;;;4921800;29;20054;-73
2023/05/29 05:19:55;;;;;;;8.57;3.35;;;13.40;99.90;;;;;;4920044;29;20047;-72
2023/05/29 05:22:21;;;;;;;7.72;3.05;;;13.50;99.80;;;;;;4937177;29;20383;-72
2023/05/29 05:24:47;;;;;;;7.85;3.03;;;13.50;99.80;;;;;;4919931;29;20102;-72
2023/05/29 05:27:13;;;;;;;5.60;3.10;;;13.50;99.80;;;;;;4937937;29;20051;-72
2023/05/29 05:29:39;;;;;;;7.97;3.10;;;13.60;99.90;;;;;;4923341;29;20515;-72
2023/05/29 05:32:05;;;;;;;7.53;3.40;;;13.60;99.90;;;;;;4903461;29;20119;-74
2023/05/29 05:34:31;;;;;;;7.38;3.15;;;13.70;99.90;;;;;;4920259;29;20055;-73
2023/05/29 05:36:57;;;;;;;7.60;3.10;;;13.70;99.90;;;;;;4894565;29;20056;-73
2023/05/29 05:39:22;;;;;;;12.68;3.30;;;13.70;99.90;;;;;;4919395;29;20044;-72
2023/05/29 05:41:48;;;;;;;8.27;3.15;;;13.70;99.90;;;;;;4938113;29;20079;-72
2023/05/29 05:44:14;;;;;;;8.38;2.80;;;13.70;99.90;;;;;;4897306;29;20192;-72
2023/05/29 05:46:40;;;;;;;8.80;3.20;;;13.70;99.90;;;;;;4920371;29;20047;-73
2023/05/29 05:49:05;;;;;;;8.23;2.63;;;13.80;99.90;;;;;;4906568;29;20109;-73
2023/05/29 05:51:31;;;;;;;14.02;3.63;;;13.80;99.90;;;;;;4938496;29;20043;-73
2023/05/29 05:53:58;;;;;;;10.07;3.40;;;13.90;99.90;;;;;;4935691;29;20040;-72
2023/05/29 05:56:26;;;;;;;9.75;3.15;;;13.90;99.90;;;;;;4915435;29;20040;-73
2023/05/29 05:58:54;;;;;;;11.55;3.75;;;13.80;99.90;;;;;;4937354;29;20075;-72
2023/05/29 06:01:20;;;;;;;;;;;13.90;99.90;;;;;;4936671;29;20422;-72
2023/05/29 06:03:46;;;;;;;9.40;2.90;;;14.00;99.90;;;;;;4935278;29;19954;-73
2023/05/29 06:06:12;;;;;;;9.70;3.10;;;14.10;99.90;;;;;;4936251;29;20089;-73
2023/05/29 06:08:38;;;;;;;8.57;3.45;;;14.10;99.90;;;;;;4906220;29;20070;-73
2023/05/29 06:11:04;;;;;;;9.35;2.88;;;14.10;99.90;;;;;;4936020;29;20437;-73
2023/05/29 06:13:32;;;;;;;10.50;2.80;;;14.20;99.90;;;;;;4918099;29;20047;-73
2023/05/29 06:15:58;;;;;;;12.82;3.08;;;14.20;99.90;;;;;;4917174;29;20047;-73
2023/05/29 06:18:25;;;;;;;9.23;3.38;;;14.20;99.90;;;;;;4890464;29;20101;-72
2023/05/29 06:20:51;;;;;;;13.98;3.80;;;14.30;99.90;;;;;;4935066;29;20077;-73
2023/05/29 06:23:17;;;;;;;11.43;3.35;;;14.40;99.90;;;;;;4939152;29;20675;-72
2023/05/29 06:25:43;;;;;;;13.93;2.83;;;14.40;99.90;;;;;;4936618;29;20142;-72
2023/05/29 06:28:08;;;;;;;11.68;3.67;;;14.50;99.90;;;;;;4918584;29;20059;-72
2023/05/29 06:30:34;;;;;;;11.00;3.20;;;14.50;99.90;;;;;;4918988;29;20043;-72
2023/05/29 06:33:00;;;;;;;16.30;3.25;;;14.50;99.90;;;;;;4903716;29;20043;-72
2023/05/29 06:35:26;;;;;;;10.32;2.83;;;14.50;99.90;;;;;;4936773;29;20067;-72
2023/05/29 06:37:52;;;;;;;10.98;3.47;;;14.50;99.90;;;;;;4943525;29;20464;-72
2023/05/29 06:40:19;;;;;;;11.98;3.35;;;14.50;99.90;;;;;;4903524;29;20066;-72
2023/05/29 06:42:46;;;;;;;11.85;3.10;;;14.60;99.90;;;;;;4934112;29;20528;-73
2023/05/29 06:45:13;;;;;;;12.90;3.63;;;14.60;99.90;;;;;;4933909;29;20076;-72
2023/05/29 06:47:40;;;;;;;9.43;3.17;;;14.70;99.90;;;;;;4906312;29;20122;-72
2023/05/29 06:50:07;;;;;;;8.18;2.63;;;14.80;99.90;;;;;;4935947;29;20044;-72
2023/05/29 06:52:32;;;;;;;9.80;3.10;;;14.80;99.90;;;;;;4938007;29;20039;-72
2023/05/29 06:54:58;;;;;;;10.57;3.30;;;14.90;99.90;;;;;;4935773;29;20078;-72
2023/05/29 06:57:24;;;;;;;12.05;3.38;;;14.90;99.90;;;;;;4950303;29;20047;-72
2023/05/29 06:59:50;;;;;;;11.60;3.47;;;15.00;99.90;;;;;;4936174;29;20067;-72
2023/05/29 07:02:15;;;;;;;9.98;3.60;;;15.10;99.90;;;;;;4942176;29;20059;-72
2023/05/29 07:04:41;;;;;;;13.15;3.60;;;15.10;99.90;;;;;;4940592;29;20111;-72
2023/05/29 07:07:07;;;;;;;10.63;3.40;;;15.10;99.90;;;;;;4922431;29;20118;-72
2023/05/29 07:09:32;;;;;;;10.23;3.22;;;15.10;99.90;;;;;;4924082;29;20053;-72
2023/05/29 07:11:58;;;;;;;14.93;4.07;;;15.20;99.90;;;;;;4927956;29;20070;-72
2023/05/29 07:14:24;;;;;;;11.30;3.17;;;15.10;99.90;;;;;;4921056;29;20055;-72
2023/05/29 07:16:50;;;;;;;9.10;3.30;;;15.20;99.90;;;;;;4922260;29;20048;-72
2023/05/29 07:19:17;;;;;;;11.40;2.90;;;15.30;99.90;;;;;;4928309;29;20380;-72
2023/05/29 07:21:43;;;;;;;13.48;3.72;;;15.50;99.90;;;;;;4921927;29;20119;-72
2023/05/29 07:24:08;;;;;;;14.48;3.70;;;15.50;99.90;;;;;;4941134;29;20048;-73
2023/05/29 07:26:34;;;;;;;13.32;3.25;;;15.50;99.90;;;;;;4922762;29;20060;-73
2023/05/29 07:29:00;;;;;;;10.20;3.00;;;15.40;99.90;;;;;;4941926;29;20051;-72
2023/05/29 07:31:27;;;;;;;9.85;2.20;;;15.60;99.90;;;;;;4906408;29;20051;-72
2023/05/29 07:33:53;;;;;;;9.18;3.78;;;15.50;99.90;;;;;;4941020;29;20047;-72
2023/05/29 07:36:21;;;;;;;15.77;4.97;;;15.60;99.90;;;;;;4922333;29;20051;-72
2023/05/29 07:38:46;;;;;;;10.93;3.00;;;15.70;99.90;;;;;;4925332;29;20062;-73
2023/05/29 07:41:12;;;;;;;12.13;3.33;;;15.70;99.90;;;;;;4919208;29;20048;-73
2023/05/29 07:43:38;;;;;;;12.68;3.08;;;15.70;99.90;;;;;;4936285;29;20059;-73
2023/05/29 07:46:03;;;;;;;17.48;3.20;;;15.90;99.90;;;;;;4904883;29;20797;-73
2023/05/29 07:48:32;;;;;;;13.93;3.22;;;15.90;99.90;;;;;;4927959;29;20528;-73
2023/05/29 07:50:58;;;;;;;11.98;3.70;;;15.80;99.80;;;;;;4924382;29;20058;-73
2023/05/29 07:53:24;;;;;;;12.00;2.70;;;15.90;99.90;;;;;;4905682;29;20047;-73
2023/05/29 07:55:50;;;;;;;8.73;2.72;;;16.00;99.90;;;;;;4939174;29;20052;-73
2023/05/29 07:58:16;;;;;;;13.55;3.78;;;16.00;99.90;;;;;;4922368;29;20078;-72
2023/05/29 08:00:44;;;;;;;15.93;3.05;;;16.00;99.70;;;;;;4938855;29;20111;-73
2023/05/29 08:03:09;;;;;;;9.10;3.03;;;16.10;99.70;;;;;;4937160;29;20047;-73
2023/05/29 08:05:35;;;;;;;12.43;3.33;;;16.20;99.80;;;;;;4939483;29;20492;-73
2023/05/29 08:08:01;;;;;;;11.52;2.95;;;16.30;99.90;;;;;;4904484;29;20052;-73
2023/05/29 08:10:27;;;;;;;8.13;2.58;;;16.30;99.90;;;;;;4923742;29;20059;-73
2023/05/29 08:12:52;;;;;;;9.75;2.47;;;16.40;99.90;;;;;;4924464;29;20837;-73
2023/05/29 08:15:19;;;;;;;13.20;2.72;;;16.60;99.50;;;;;;4938751;29;20082;-73
2023/05/29 08:17:44;;;;;;;14.45;3.30;;;16.60;99.40;;;;;;4921583;29;20059;-73
2023/05/29 08:20:11;;;;;;;10.65;3.35;;;16.70;99.30;;;;;;4938331;29;20051;-73
2023/05/29 08:22:36;;;;;;;11.38;2.88;;;16.80;99.20;;;;;;4925685;29;20043;-73
2023/05/29 08:25:02;;;;;;;12.32;2.75;;;16.90;98.90;;;;;;4921353;29;20066;-73
2023/05/29 08:27:29;;;;;;;15.93;3.35;;;16.90;99.00;;;;;;4941592;29;20362;-73
2023/05/29 08:29:55;;;;;;;13.63;3.17;;;17.00;98.70;;;;;;4924071;29;20051;-72
2023/05/29 08:32:21;;;;;;;11.70;2.80;;;17.00;98.40;;;;;;4942024;29;20039;-72
2023/05/29 08:34:46;;;;;;;13.07;2.70;;;16.90;98.40;;;;;;4920196;29;20059;-72
2023/05/29 08:37:13;;;;;;;14.95;3.35;;;16.90;98.00;;;;;;4920984;29;20659;-72
2023/05/29 08:39:38;;;;;;;11.63;3.47;;;16.80;98.10;;;;;;4908924;29;20087;-72
2023/05/29 08:42:10;;;;;;;10.90;3.22;;;16.90;98.70;;;;;;4910887;29;20117;-72
2023/05/29 08:44:36;;;;;;;11.88;3.15;;;17.10;98.70;;;;;;4919357;29;20066;-72
2023/05/29 08:47:06;;;;;;;13.60;3.22;;;17.20;98.40;;;;;;4890328;29;20039;-73
2023/05/29 08:49:42;;;;;;;10.60;2.78;;;17.30;98.10;;;;;;4942048;29;20341;-72
2023/05/29 08:52:18;;;;;;;9.00;2.45;;;17.40;98.20;;;;;;4908762;29;20044;-74
2023/05/29 08:54:46;;;;;;;6.68;2.53;;;17.50;98.10;;;;;;4917184;29;20127;-73
2023/05/29 08:57:11;;;;;;;11.85;2.88;;;17.60;98.20;;;;;;4905915;29;20062;-74
2023/05/29 08:59:42;;;;;;;11.60;2.83;;;17.70;97.90;;;;;;4940845;29;20043;-73
2023/05/29 09:02:09;;;;;;;10.05;3.13;;;17.80;97.80;;;;;;4895179;29;20488;-74
2023/05/29 09:04:35;;;;;;;14.98;2.60;;;17.80;97.70;;;;;;4930947;29;20126;-74
2023/05/29 09:07:02;;;;;;;8.48;2.70;;;17.90;97.10;;;;;;4936180;29;20043;-73
2023/05/29 09:09:29;;;;;;;13.77;3.05;;;18.00;97.10;;;;;;4937974;29;20043;-74
2023/05/29 09:11:56;;;;;;;9.60;2.65;;;18.00;97.50;;;;;;4919056;29;20465;-74
2023/05/29 09:14:35;;;;;;;11.18;2.42;;;18.10;97.30;;;;;;4934896;29;20151;-74
2023/05/29 09:17:02;;;;;;;9.25;2.78;;;18.20;96.90;;;;;;4921633;29;20516;-74
2023/05/29 09:19:28;;;;;;;8.60;2.78;;;18.20;96.40;;;;;;4920316;29;20035;-75
2023/05/29 09:22:00;;;;;;;8.77;2.97;;;18.30;95.90;;;;;;4935196;29;20109;-75
2023/05/29 09:24:27;;;;;;;8.50;3.13;;;18.30;96.20;;;;;;4902761;29;20055;-74
2023/05/29 09:26:53;;;;;;;7.85;2.80;;;18.40;95.90;;;;;;4921079;29;20059;-74
2023/05/29 09:29:20;;;;;;;7.57;2.65;;;18.40;95.80;;;;;;4921651;29;20102;-74
2023/05/29 09:31:52;;;;;;;10.45;2.60;;;18.50;95.30;;;;;;4904606;29;20044;-75
2023/05/29 09:34:18;;;;;;;10.20;2.63;;;18.60;95.80;;;;;;4917937;29;20082;-75
2023/05/29 09:36:44;;;;;;;7.85;2.30;;;18.70;95.70;;;;;;4936436;29;20437;-74
2023/05/29 09:39:10;;;;;;;7.15;2.20;;;18.70;94.90;;;;;;4923423;29;20050;-74
2023/05/29 09:41:43;;;;;;;9.82;2.78;;;18.80;95.10;;;;;;4934926;29;20047;-75
2023/05/29 09:44:13;;;;;;;11.23;3.10;;;18.90;95.10;;;;;;4911656;29;20051;-74
2023/05/29 09:46:40;;;;;;;9.07;2.50;;;18.60;92.50;;;;;;4933279;29;20706;-73
2023/05/29 09:49:13;;;;;;;7.57;2.33;;;18.50;93.40;;;;;;4919255;29;20043;-73
2023/05/29 09:51:39;;;;;;;10.93;2.72;;;18.80;94.50;;;;;;4937784;29;20047;-73
2023/05/29 09:54:20;;;;;;;9.65;2.75;;;18.50;92.50;;;;;;4928460;29;20731;-73
2023/05/29 09:56:47;;;;;;;7.97;2.20;;;18.40;93.00;;;;;;4917281;29;20186;-74
2023/05/29 09:59:14;;;;;;;7.38;2.53;;;18.60;94.00;;;;;;4933230;29;20137;-74
2023/05/29 10:01:46;;;;;;;6.50;2.30;;;18.90;94.70;;;;;;4930777;29;20076;-74
2023/05/29 10:04:11;;;;;;;6.35;2.35;;;19.20;93.70;;;;;;4919448;29;20067;-74
2023/05/29 10:06:38;;;;;;;8.02;2.30;;;19.30;93.00;;;;;;4933341;29;20134;-74
2023/05/29 10:09:11;;;;;;;7.78;2.55;;;19.30;91.20;;;;;;4932541;29;20044;-74
2023/05/29 10:11:38;;;;;;;7.60;2.30;;;19.40;92.20;;;;;;4924730;29;20048;-75
2023/05/29 10:14:04;;;;;;;9.25;2.30;;;19.60;91.60;;;;;;4911486;29;20056;-74
2023/05/29 10:16:35;;;;;;;7.75;2.35;;;19.50;92.00;;;;;;4918767;29;20039;-74
2023/05/29 10:19:02;;;;;;;11.95;2.63;;;19.60;91.90;;;;;;4920882;29;20342;-74
2023/05/29 10:21:31;;;;;;;6.63;2.35;;;19.60;90.00;;;;;;4916474;29;20618;-74
2023/05/29 10:23:58;;;;;;;6.82;2.10;;;19.50;89.60;;;;;;4921589;29;20074;-74
2023/05/29 10:26:28;;;;;;;5.25;2.33;;;19.70;90.80;;;;;;4901101;29;20067;-74
2023/05/29 10:29:07;;;;;;;9.60;2.42;;;19.80;90.10;;;;;;4910462;29;20039;-74
2023/05/29 10:32:22;;;;;;;8.40;2.20;;;19.90;90.30;;;;;;4914365;29;20047;-74
2023/05/29 10:35:00;;;;;;;11.85;2.67;;;19.80;86.70;;;;;;4880061;29;20044;-74
2023/05/29 10:37:37;;;;;;;;;;;19.70;86.10;;;;;;4893977;29;20108;-74
2023/05/29 10:40:06;;;;;;;7.77;2.80;;;19.90;87.50;;;;;;4894781;29;20038;-74
2023/05/29 10:42:54;;;;;;;7.82;2.28;;;19.70;86.90;;;;;;4884834;29;20276;-74
2023/05/29 10:45:29;;;;;;;8.80;2.33;;;20.00;89.60;;;;;;4932109;29;20130;-73
2023/05/29 10:48:06;;;;;;;6.65;2.47;;;20.00;88.90;;;;;;4927078;29;20070;-73
2023/05/29 10:50:38;;;;;;;6.03;2.45;;;19.80;85.00;;;;;;4915432;29;20528;-73
2023/05/29 10:53:11;;;;;;;6.65;2.30;;;19.10;82.60;;;;;;4901016;29;20054;-73
2023/05/29 10:55:37;;;;;;;7.50;2.70;;;19.00;83.20;;;;;;4929840;29;20055;-74
2023/05/29 10:58:06;;;;;;;6.60;2.97;;;19.30;84.70;;;;;;4924543;29;20059;-74
2023/05/29 11:00:32;;;;;;;9.52;2.58;;;19.10;84.10;;;;;;4916898;29;20106;-74
2023/05/29 11:03:03;;;;;;;6.78;2.42;;;19.20;86.00;;;;;;4937071;29;20439;-74
2023/05/29 11:05:30;;;;;;;7.85;2.40;;;19.10;86.20;;;;;;4917590;29;20094;-74
2023/05/29 11:07:57;;;;;;;11.20;3.63;;;19.50;89.80;;;;;;4919841;29;20039;-75
2023/05/29 11:10:54;;;;;;;15.88;6.70;;;19.70;87.90;;;;;;4931516;29;20052;-74
2023/05/29 11:13:28;;;;;;;26.95;10.80;;;20.00;88.00;;;;;;4930203;29;20050;-75
2023/05/29 11:16:11;;;;;;;10.30;3.60;;;20.20;87.00;;;;;;4931771;29;20061;-72
2023/05/29 11:18:41;;;;;;;15.05;4.90;;;20.30;83.30;;;;;;4915258;29;20427;-75
2023/05/29 11:21:34;;;;;;;18.00;5.50;;;20.20;85.80;;;;;;4916343;29;20079;-73
2023/05/29 11:24:06;;;;;;;13.85;5.25;;;20.30;85.20;;;;;;4890507;29;20044;-74
2023/05/29 11:26:33;;;;;;;8.50;2.50;;;20.30;86.10;;;;;;4931850;29;20746;-74
2023/05/29 11:29:04;;;;;;;10.02;3.00;;;20.40;82.00;;;;;;4917860;29;20056;-74
2023/05/29 11:31:34;;;;;;;9.60;2.72;;;20.30;83.40;;;;;;4916845;29;20104;-74
2023/05/29 11:34:01;;;;;;;12.15;2.80;;;20.10;82.90;;;;;;4893550;29;20043;-74
2023/05/29 11:36:27;;;;;;;9.52;2.40;;;20.30;82.50;;;;;;4914953;29;20142;-74
2023/05/29 11:38:53;;;;;;;8.05;2.58;;;20.40;82.10;;;;;;4934313;29;20048;-75
2023/05/29 11:41:19;;;;;;;12.07;2.90;;;20.20;80.00;;;;;;4915723;29;20154;-74
2023/05/29 11:43:56;;;;;;;8.82;2.72;;;19.90;79.90;;;;;;4931764;29;20063;-74
2023/05/29 11:46:22;;;;;;;10.07;3.10;;;19.90;78.40;;;;;;4934025;29;20044;-73
2023/05/29 11:48:48;;;;;;;8.07;2.90;;;19.80;78.90;;;;;;4920887;29;20119;-74
2023/05/29 11:51:14;;;;;;;7.55;2.22;;;19.80;78.60;;;;;;4919204;29;20035;-74
2023/05/29 11:53:42;;;;;;;7.45;2.60;;;19.60;77.20;;;;;;4938498;29;20043;-74
2023/05/29 11:56:10;;;;;;;6.63;2.42;;;19.70;78.80;;;;;;4908233;29;20075;-74
2023/05/29 11:58:39;;;;;;;7.15;2.60;;;20.20;80.50;;;;;;4907256;29;20051;-74
2023/05/29 12:01:06;;;;;;;6.25;2.53;;;20.50;80.10;;;;;;4925814;29;20052;-76
2023/05/29 12:03:41;;;;;;;6.50;2.50;;;20.60;74.30;;;;;;4916562;29;20107;-75
2023/05/29 12:06:08;;;;;;;7.68;2.55;;;20.10;74.00;;;;;;4919172;29;20051;-73
2023/05/29 12:08:41;;;;;;;6.97;2.40;;;20.20;76.40;;;;;;4937014;29;20047;-76
2023/05/29 12:11:08;;;;;;;6.22;2.47;;;20.70;76.50;;;;;;4917017;29;20044;-76
2023/05/29 12:13:34;;;;;;;5.95;2.50;;;20.70;74.00;;;;;;4918778;29;20043;-73
2023/05/29 12:16:05;;;;;;;5.53;2.30;;;20.60;75.10;;;;;;4936535;29;20566;-73
2023/05/29 12:18:31;;;;;;;9.70;2.70;;;20.50;75.20;;;;;;4918146;29;20052;-73
2023/05/29 12:21:07;;;;;;;5.70;2.22;;;20.40;74.20;;;;;;4912201;29;20123;-73
2023/05/29 12:23:37;;;;;;;5.57;2.33;;;20.70;74.80;;;;;;4918315;29;20058;-73
2023/05/29 12:26:03;;;;;;;7.90;2.50;;;21.10;78.30;;;;;;4889901;29;20047;-73
2023/05/29 12:28:29;;;;;;;8.65;2.50;;;21.40;76.90;;;;;;4904535;29;20500;-72
2023/05/29 12:30:58;;;;;;;9.48;2.78;;;20.70;72.80;;;;;;4935383;29;20054;-72
2023/05/29 12:33:31;;;;;;;7.75;2.60;;;20.20;73.40;;;;;;4922122;29;20094;-72
2023/05/29 12:36:07;;;;;;;7.85;2.53;;;20.20;73.20;;;;;;4900857;29;20059;-72
2023/05/29 12:38:33;;;;;;;7.70;2.55;;;20.10;72.30;;;;;;4938227;29;20047;-72
2023/05/29 12:40:59;;;;;;;5.05;2.38;;;20.40;71.30;;;;;;4920318;29;20056;-73
2023/05/29 12:43:25;;;;;;;5.55;2.40;;;20.40;72.30;;;;;;4940648;29;20059;-73
2023/05/29 12:45:56;;;;;;;7.97;2.40;;;20.40;73.30;;;;;;4934675;28;20047;-72